SBOSBO NAP / LIRN
Speedbird OnlineSpeedbird Online NAP / LIRN

Naples International Airport
06:19 6.7°C

Location Naples, Italy
Latitude: 40.886002
Longitude: 14.2908
Web Airport Website | Wikipedia
Altitude 90 Meter / 294 Feet
Distance 1,601 KM / 995 Miles
from London.
Time Zone UTC +1 hours (Europe/Rome)
Codes IATA: NAP
ICAO: LIRN
Currency £1 equals EUR 1.14
Runways
RunwayLength (m)Surface
062628Asphalt
242628Asphalt
Radio
TypeDescriptionFrequency
APPNAPOLI RADAR124.35
ATISATIS135.975
DIRNAPOLI DIRECTOR120.95
GCCDNAPOLI GND CLNC DEL121.9
OPSUSN BASE OPS118.275
PMSVPMSV METRO34.1
POSTATOC118.275
TWRNAPOLI TWR118.5
Live ATC
METAR LIRN 290450Z 04009KT 9999 SCT070 07/01 Q1018 NOSIG
TAF TAF LIRN 282300Z 2900/2924 05010KT 9999 SCT040
Weather As Of 29 Jan 2023 06:19
Description Scattered clouds
Wind 17 km/h from North-East (40°)
Cloud Cover 40%
Precipitation Rain: none, Snow: none
Sunrise 07:16
Sunset 17:15
Lounges Pearl lounge, MAIN TERMINAL
Airport VIP Lounge , Main terminal
Rotations During the last 90 days there were
60 flights from LHR
60 flights to LHR



Support Speedbird Online

© 2017-2023 Speedbird Online